Terminal Aerodrome Forecast
Issued by NWS Cleveland, OH

Home | Current Version | Previous Version | Text Only | Print | Product List | Glossary On
Versions: 1 2 3 4 5 6 7 8 9 10 11 12 13 14 15 16
000
FTUS41 KCLE 241126
TAFERI
TAF
KERI 241126Z 2412/2512 20006KT P6SM FEW035 BKN200
     FM241700 26008KT P6SM FEW120 BKN200
     FM250200 19010KT P6SM SCT120 BKN200
     FM251100 20010KT P6SM VCTS BKN035CB OVC120=

USA.gov is the U.S. government's official web portal to all federal, state and local government web resources and services.